Time;durP1;ratioP1;P1;durP2;ratioP2;P2;SDS_P1;SDS_P2;PMS_P1;PMS_P2;Temp;Humidity;BMP_temperature;BMP_pressure;BME280_temperature;BME280_humidity;BME280_pressure;Samples;Min_cycle;Max_cycle;Signal;HPM_P1;HPM_P2
2021/10/10 00:00:24;;;;;;;0.90;0.90;;;22.40;67.90;;;;;;5106894;28;20537;-36
2021/10/10 00:02:50;;;;;;;1.08;1.00;;;22.40;67.90;;;;;;5125299;28;20032;-36
2021/10/10 00:05:16;;;;;;;1.10;1.00;;;22.50;68.00;;;;;;5105691;28;20028;-36
2021/10/10 00:07:42;;;;;;;1.10;1.00;;;22.50;68.00;;;;;;5104939;28;20025;-36
2021/10/10 00:10:13;;;;;;;0.95;0.85;;;22.50;68.10;;;;;;5104661;28;20031;-35
2021/10/10 00:12:40;;;;;;;1.23;1.13;;;22.50;68.40;;;;;;5104353;28;20124;-36
2021/10/10 00:15:07;;;;;;;1.10;1.00;;;22.50;68.40;;;;;;5104295;28;20024;-36
2021/10/10 00:17:33;;;;;;;1.20;1.10;;;22.50;68.60;;;;;;5104933;28;20036;-37
2021/10/10 00:20:00;;;;;;;1.20;1.10;;;22.50;68.60;;;;;;5104302;28;20020;-36
2021/10/10 00:22:26;;;;;;;0.80;0.80;;;22.50;68.70;;;;;;5104569;28;20039;-36
2021/10/10 00:24:52;;;;;;;1.27;1.17;;;22.50;68.80;;;;;;5104331;28;20062;-35
2021/10/10 00:27:19;;;;;;;1.20;1.10;;;22.50;68.90;;;;;;5104549;28;20035;-36
2021/10/10 00:29:45;;;;;;;1.30;1.20;;;22.50;68.80;;;;;;5124462;28;20028;-36
2021/10/10 00:32:11;;;;;;;1.48;1.20;;;22.50;68.80;;;;;;5106622;28;20036;-36
2021/10/10 00:34:37;;;;;;;1.20;1.10;;;22.50;68.70;;;;;;5124499;28;20027;-35
2021/10/10 00:37:04;;;;;;;1.25;1.15;;;22.50;68.70;;;;;;5124676;28;20039;-36
2021/10/10 00:39:30;;;;;;;1.20;1.10;;;22.50;68.70;;;;;;5124632;28;20432;-36
2021/10/10 00:41:56;;;;;;;1.13;1.00;;;22.60;68.80;;;;;;5124533;28;20032;-36
2021/10/10 00:44:22;;;;;;;1.23;1.13;;;22.60;68.80;;;;;;5124075;28;20023;-36
2021/10/10 00:46:48;;;;;;;1.27;1.17;;;22.60;68.90;;;;;;5124267;28;20028;-36
2021/10/10 00:49:14;;;;;;;2.05;1.30;;;22.60;69.10;;;;;;5124327;28;20040;-36
2021/10/10 00:51:41;;;;;;;1.23;1.13;;;22.60;69.30;;;;;;5124500;28;20051;-35
2021/10/10 00:54:07;;;;;;;1.00;0.90;;;22.60;69.40;;;;;;5105996;28;20024;-36
2021/10/10 00:56:33;;;;;;;1.20;1.10;;;22.60;69.50;;;;;;5105718;28;20042;-35
2021/10/10 00:58:59;;;;;;;1.23;1.13;;;22.60;69.50;;;;;;5124203;28;20066;-36
2021/10/10 01:01:27;;;;;;;1.30;1.20;;;22.60;69.50;;;;;;5088973;28;20677;-36
2021/10/10 01:03:53;;;;;;;3.60;1.20;;;22.60;69.50;;;;;;5123682;28;20038;-35
2021/10/10 01:06:19;;;;;;;1.10;1.00;;;22.60;69.60;;;;;;5123713;28;20055;-36
2021/10/10 01:08:45;;;;;;;1.23;0.98;;;22.60;69.60;;;;;;5124257;28;20035;-36
2021/10/10 01:11:12;;;;;;;1.00;1.00;;;22.60;69.50;;;;;;5123792;28;20032;-36
2021/10/10 01:13:41;;;;;;;1.33;0.88;;;22.60;69.50;;;;;;5105442;28;20030;-36
2021/10/10 01:16:07;;;;;;;1.38;1.08;;;22.60;69.60;;;;;;5105805;28;20028;-36
2021/10/10 01:18:33;;;;;;;1.15;1.08;;;22.60;69.60;;;;;;5105490;28;20019;-36
2021/10/10 01:20:59;;;;;;;1.30;1.20;;;22.60;69.70;;;;;;5123988;28;20035;-36
2021/10/10 01:23:25;;;;;;;1.35;1.10;;;22.60;69.70;;;;;;5123778;28;20023;-36
2021/10/10 01:25:52;;;;;;;1.30;1.20;;;22.60;69.80;;;;;;5123498;28;20031;-35
2021/10/10 01:28:18;;;;;;;1.13;1.03;;;22.60;70.10;;;;;;5105215;28;20089;-36
2021/10/10 01:30:45;;;;;;;1.27;1.17;;;22.60;70.10;;;;;;5123369;28;20036;-36
2021/10/10 01:33:12;;;;;;;1.47;1.07;;;22.60;70.10;;;;;;5122395;28;20556;-35
2021/10/10 01:35:39;;;;;;;1.67;1.08;;;22.60;70.10;;;;;;5123654;28;20666;-36
2021/10/10 01:38:05;;;;;;;1.23;1.13;;;22.60;70.00;;;;;;5123793;28;20092;-35
2021/10/10 01:40:33;;;;;;;1.30;1.20;;;22.60;70.00;;;;;;5123606;28;20028;-36
2021/10/10 01:43:01;;;;;;;1.33;1.23;;;22.60;70.10;;;;;;5123526;28;20031;-36
2021/10/10 01:45:27;;;;;;;1.73;1.10;;;22.60;70.00;;;;;;5123289;28;20031;-36
2021/10/10 01:47:53;;;;;;;1.75;1.30;;;22.60;70.10;;;;;;5123428;28;20023;-36
2021/10/10 01:50:20;;;;;;;1.17;1.08;;;22.60;70.10;;;;;;5123278;28;20051;-36
2021/10/10 01:52:50;;;;;;;2.45;1.10;;;22.60;70.20;;;;;;5123437;28;20075;-35
2021/10/10 01:55:17;;;;;;;1.58;1.40;;;22.60;70.30;;;;;;5122954;28;20090;-36
2021/10/10 01:57:43;;;;;;;2.70;1.33;;;22.60;70.30;;;;;;5123317;28;20080;-36
2021/10/10 02:00:10;;;;;;;1.60;1.40;;;22.60;70.30;;;;;;5123246;28;20028;-36
2021/10/10 02:02:36;;;;;;;2.00;1.60;;;22.60;70.30;;;;;;5123371;28;20191;-36
2021/10/10 02:05:03;;;;;;;1.15;1.05;;;22.60;70.30;;;;;;5123131;28;20032;-36
2021/10/10 02:07:29;;;;;;;1.60;1.30;;;22.60;70.30;;;;;;5123387;28;20031;-36
2021/10/10 02:09:55;;;;;;;1.93;1.70;;;22.60;70.30;;;;;;5123074;28;20032;-35
2021/10/10 02:12:21;;;;;;;3.30;1.43;;;22.60;70.40;;;;;;5123159;28;20063;-36
2021/10/10 02:14:47;;;;;;;1.60;1.50;;;22.60;70.40;;;;;;5121558;28;20320;-36
2021/10/10 02:17:14;;;;;;;1.48;1.38;;;22.60;70.60;;;;;;5123089;28;20087;-35
2021/10/10 02:19:40;;;;;;;1.40;1.30;;;22.60;70.60;;;;;;5123324;28;20035;-36
2021/10/10 02:22:06;;;;;;;2.28;1.38;;;22.60;70.40;;;;;;5122134;28;20031;-36
2021/10/10 02:24:32;;;;;;;2.08;1.40;;;22.60;70.40;;;;;;5122668;28;20039;-36
2021/10/10 02:26:58;;;;;;;2.08;1.50;;;22.60;70.40;;;;;;5123118;28;20031;-35
2021/10/10 02:29:26;;;;;;;1.95;1.38;;;22.60;70.40;;;;;;5123173;28;20019;-36
2021/10/10 02:31:55;;;;;;;1.35;1.25;;;22.60;70.40;;;;;;5122970;28;20047;-35
2021/10/10 02:34:21;;;;;;;1.30;1.20;;;22.60;70.20;;;;;;5122898;28;20019;-36
2021/10/10 02:36:47;;;;;;;1.75;1.27;;;22.60;70.20;;;;;;5122751;28;20031;-36
2021/10/10 02:39:13;;;;;;;1.70;1.60;;;22.60;70.20;;;;;;5104506;28;20027;-36
2021/10/10 02:41:39;;;;;;;1.70;1.60;;;22.50;70.00;;;;;;5122670;28;20024;-36
2021/10/10 02:44:06;;;;;;;1.55;1.17;;;22.50;69.80;;;;;;5125055;28;20027;-36
2021/10/10 02:46:32;;;;;;;1.90;1.50;;;22.50;69.80;;;;;;5126791;28;20073;-36
2021/10/10 02:49:00;;;;;;;1.55;1.30;;;22.50;70.00;;;;;;5126889;28;20043;-36
2021/10/10 02:51:26;;;;;;;1.92;1.20;;;22.50;69.80;;;;;;5126674;28;20039;-35
2021/10/10 02:53:52;;;;;;;1.50;1.40;;;22.50;69.90;;;;;;5126384;28;20095;-36
2021/10/10 02:56:19;;;;;;;1.80;1.20;;;22.50;69.70;;;;;;5126728;28;20031;-36
2021/10/10 02:58:45;;;;;;;2.00;1.30;;;22.50;69.80;;;;;;5126682;28;20418;-36
2021/10/10 03:01:11;;;;;;;1.52;1.30;;;22.50;69.80;;;;;;5126295;28;20055;-37
2021/10/10 03:03:37;;;;;;;1.67;1.20;;;22.50;69.70;;;;;;5126068;28;20039;-35
2021/10/10 03:06:03;;;;;;;2.53;1.48;;;22.50;69.70;;;;;;5126292;28;20038;-36
2021/10/10 03:08:30;;;;;;;1.60;1.40;;;22.50;69.60;;;;;;5126534;28;20409;-36
2021/10/10 03:10:56;;;;;;;2.42;1.27;;;22.50;69.60;;;;;;5126369;28;20040;-35
2021/10/10 03:13:22;;;;;;;1.75;1.30;;;22.50;69.60;;;;;;5125889;28;20079;-35
2021/10/10 03:15:48;;;;;;;1.50;1.40;;;22.50;69.50;;;;;;5125581;28;20032;-36
2021/10/10 03:18:14;;;;;;;2.38;1.40;;;22.40;69.50;;;;;;5126345;28;20077;-36
2021/10/10 03:20:40;;;;;;;1.60;1.50;;;22.40;69.50;;;;;;5126339;28;20070;-36
2021/10/10 03:23:07;;;;;;;1.85;1.40;;;22.40;69.50;;;;;;5125876;28;20072;-35
2021/10/10 03:25:33;;;;;;;2.70;1.40;;;22.40;69.50;;;;;;5126042;28;20033;-35
2021/10/10 03:27:59;;;;;;;1.73;1.35;;;22.40;69.60;;;;;;5126283;28;20028;-36
2021/10/10 03:30:25;;;;;;;1.70;1.60;;;22.40;69.50;;;;;;5125806;28;20027;-36
2021/10/10 03:32:51;;;;;;;1.30;1.13;;;22.40;69.50;;;;;;5125578;28;20043;-36
2021/10/10 03:35:17;;;;;;;1.70;1.42;;;22.40;69.50;;;;;;5107575;28;20027;-36
2021/10/10 03:37:43;;;;;;;1.50;1.40;;;22.40;69.60;;;;;;5125094;28;20122;-36
2021/10/10 03:40:10;;;;;;;1.60;1.50;;;22.40;69.60;;;;;;5125984;28;20020;-36
2021/10/10 03:42:37;;;;;;;1.50;1.40;;;22.40;69.60;;;;;;5125512;28;20030;-36
2021/10/10 03:45:07;;;;;;;1.17;1.08;;;22.40;69.60;;;;;;5125478;28;20024;-36
2021/10/10 03:47:33;;;;;;;1.60;1.50;;;22.40;69.70;;;;;;5125541;28;20027;-36
2021/10/10 03:49:59;;;;;;;1.60;1.50;;;22.40;69.60;;;;;;5125362;28;20055;-36
2021/10/10 03:52:25;;;;;;;1.30;1.17;;;22.30;69.60;;;;;;5125496;28;20024;-36
2021/10/10 03:57:36;;;;;;;1.98;1.60;;;22.30;69.70;;;;;;5125316;28;20035;-36
2021/10/10 04:00:07;;;;;;;2.10;1.55;;;22.40;69.80;;;;;;5125337;28;20053;-35
2021/10/10 04:02:33;;;;;;;1.42;1.33;;;22.30;69.70;;;;;;5125190;28;20051;-36
2021/10/10 04:05:01;;;;;;;1.45;1.35;;;22.30;69.70;;;;;;5125319;28;20059;-36
2021/10/10 04:07:27;;;;;;;1.73;1.63;;;22.30;69.80;;;;;;5125260;28;20452;-36
2021/10/10 04:09:53;;;;;;;1.70;1.60;;;22.30;69.80;;;;;;5125231;28;20031;-36
2021/10/10 04:12:20;;;;;;;1.60;1.50;;;22.30;69.80;;;;;;5125031;28;20721;-36
2021/10/10 04:14:46;;;;;;;1.50;1.40;;;22.30;69.80;;;;;;5124703;28;20161;-36
2021/10/10 04:17:12;;;;;;;1.63;1.52;;;22.30;69.90;;;;;;5106914;28;20375;-36
2021/10/10 04:19:38;;;;;;;2.38;1.40;;;22.30;69.90;;;;;;5125066;28;20121;-35
2021/10/10 04:22:05;;;;;;;2.28;1.40;;;22.30;69.90;;;;;;5124861;28;20036;-35
2021/10/10 04:24:31;;;;;;;2.00;1.48;;;22.20;69.90;;;;;;5123991;28;20084;-36
2021/10/10 04:26:57;;;;;;;2.08;1.80;;;22.20;69.90;;;;;;5106739;28;20172;-36
2021/10/10 04:29:23;;;;;;;3.53;1.40;;;22.30;70.00;;;;;;5124683;27;20023;-36
2021/10/10 04:31:49;;;;;;;1.80;1.58;;;22.20;70.00;;;;;;5124711;28;20070;-36
2021/10/10 04:34:16;;;;;;;1.83;1.50;;;22.20;70.00;;;;;;5124423;28;20032;-36
2021/10/10 04:36:42;;;;;;;4.80;1.67;;;22.20;70.00;;;;;;5124856;28;20049;-36
2021/10/10 04:39:08;;;;;;;1.80;1.65;;;22.20;70.00;;;;;;5106407;28;20031;-37
2021/10/10 04:41:34;;;;;;;1.80;1.33;;;22.20;70.00;;;;;;5124361;28;20058;-36
2021/10/10 04:44:00;;;;;;;1.60;1.50;;;22.20;70.10;;;;;;5124518;28;20078;-36
2021/10/10 04:46:26;;;;;;;2.72;1.60;;;22.20;70.10;;;;;;5124090;28;20031;-35
2021/10/10 04:48:52;;;;;;;1.77;1.30;;;22.20;70.10;;;;;;5124219;28;20127;-36
2021/10/10 04:51:18;;;;;;;2.15;1.80;;;22.20;70.10;;;;;;5124407;28;20042;-35
2021/10/10 04:53:45;;;;;;;2.03;1.50;;;22.20;70.20;;;;;;5124395;28;20372;-36
2021/10/10 04:56:11;;;;;;;2.25;1.50;;;22.20;70.20;;;;;;5124228;28;20032;-36
2021/10/10 04:58:37;;;;;;;2.25;1.63;;;22.10;70.20;;;;;;5124359;28;20075;-36
2021/10/10 05:01:03;;;;;;;1.85;1.75;;;22.10;70.20;;;;;;5123993;28;20023;-36
2021/10/10 05:03:29;;;;;;;1.65;1.40;;;22.20;70.20;;;;;;5123636;28;20024;-36
2021/10/10 05:05:55;;;;;;;2.22;1.70;;;22.10;70.20;;;;;;5123768;28;20028;-36
2021/10/10 05:08:22;;;;;;;1.67;1.57;;;22.10;70.20;;;;;;5123279;28;20072;-36
2021/10/10 05:10:48;;;;;;;2.25;1.70;;;22.10;70.30;;;;;;5123723;28;20355;-36
2021/10/10 05:13:14;;;;;;;1.90;1.58;;;22.10;70.30;;;;;;5123982;28;20019;-36
2021/10/10 05:15:40;;;;;;;2.95;1.60;;;22.10;70.30;;;;;;5123045;28;20038;-36
2021/10/10 05:18:06;;;;;;;2.00;1.67;;;22.10;70.30;;;;;;5123763;28;20404;-36
2021/10/10 05:20:32;;;;;;;1.90;1.80;;;22.10;70.30;;;;;;5123860;28;20049;-36
2021/10/10 05:22:58;;;;;;;2.05;1.83;;;22.10;70.30;;;;;;5123814;28;20131;-36
2021/10/10 05:25:25;;;;;;;1.65;1.55;;;22.10;70.40;;;;;;5123256;28;20050;-36
2021/10/10 05:27:51;;;;;;;2.97;1.80;;;22.10;70.30;;;;;;5123609;28;20032;-36
2021/10/10 05:30:17;;;;;;;3.25;1.80;;;22.00;70.30;;;;;;5123478;28;20103;-36
2021/10/10 05:32:44;;;;;;;1.63;1.52;;;22.00;70.40;;;;;;5105603;28;20016;-36
2021/10/10 05:35:10;;;;;;;1.92;1.40;;;22.00;70.40;;;;;;5123297;28;20023;-35
2021/10/10 05:37:36;;;;;;;1.98;1.77;;;22.00;70.40;;;;;;5123387;28;20088;-36
2021/10/10 05:40:02;;;;;;;2.10;1.90;;;22.00;70.40;;;;;;5123270;28;20038;-35
2021/10/10 05:42:29;;;;;;;1.90;1.70;;;22.00;70.50;;;;;;5122630;28;20035;-36
2021/10/10 05:44:55;;;;;;;4.53;1.70;;;22.00;70.40;;;;;;5123221;28;21076;-36
2021/10/10 05:47:21;;;;;;;3.47;2.20;;;22.00;70.40;;;;;;5123064;28;20054;-36
2021/10/10 05:49:47;;;;;;;2.40;1.95;;;22.00;70.50;;;;;;5123165;28;20069;-36
2021/10/10 05:52:13;;;;;;;2.13;1.65;;;22.00;70.50;;;;;;5123377;28;20035;-36
2021/10/10 05:54:39;;;;;;;2.15;1.92;;;22.00;70.50;;;;;;5122915;28;20027;-36
2021/10/10 05:57:09;;;;;;;1.92;1.70;;;22.00;70.60;;;;;;5123367;28;20419;-36
2021/10/10 05:59:35;;;;;;;2.30;1.83;;;22.00;70.60;;;;;;5123169;28;20042;-36
2021/10/10 06:02:02;;;;;;;2.47;2.00;;;22.00;70.60;;;;;;5121924;28;20084;-36
2021/10/10 06:04:28;;;;;;;1.85;1.73;;;21.90;70.60;;;;;;5104668;28;20024;-36
2021/10/10 06:06:54;;;;;;;3.10;1.90;;;21.90;70.70;;;;;;5123227;28;20031;-36
2021/10/10 06:09:20;;;;;;;2.38;1.85;;;21.90;70.70;;;;;;5122965;28;20032;-36
2021/10/10 06:11:47;;;;;;;2.15;1.60;;;21.90;70.70;;;;;;5123012;28;20035;-36
2021/10/10 06:14:13;;;;;;;2.10;1.70;;;21.90;71.50;;;;;;5104791;28;20041;-36
2021/10/10 06:16:39;;;;;;;2.05;1.83;;;21.90;70.70;;;;;;5122073;28;20027;-36
2021/10/10 06:19:05;;;;;;;2.55;1.70;;;21.90;70.70;;;;;;5125486;28;20024;-36
2021/10/10 06:21:32;;;;;;;2.53;1.70;;;21.90;70.80;;;;;;5127292;28;20024;-35
2021/10/10 06:23:58;;;;;;;2.28;1.90;;;21.90;70.80;;;;;;5127237;28;20039;-36
2021/10/10 06:26:24;;;;;;;2.40;2.20;;;21.90;70.80;;;;;;5126747;28;20047;-36
2021/10/10 06:28:51;;;;;;;2.03;1.83;;;21.80;70.90;;;;;;5127119;28;20695;-36
2021/10/10 06:31:17;;;;;;;2.38;1.80;;;21.80;70.80;;;;;;5126739;27;20032;-36
2021/10/10 06:33:43;;;;;;;3.78;2.00;;;21.80;70.80;;;;;;5127060;28;20109;-36
2021/10/10 06:36:09;;;;;;;2.40;1.77;;;21.80;70.80;;;;;;5126838;28;20023;-36
2021/10/10 06:38:35;;;;;;;1.70;1.55;;;21.80;70.90;;;;;;5126407;28;20030;-36
2021/10/10 06:41:01;;;;;;;2.30;2.08;;;21.80;70.80;;;;;;5126917;28;20024;-36
2021/10/10 06:43:27;;;;;;;3.97;2.25;;;21.80;70.90;;;;;;5126916;28;20041;-36
2021/10/10 06:45:54;;;;;;;2.60;2.00;;;21.80;70.90;;;;;;5126480;28;20035;-36
2021/10/10 06:48:20;;;;;;;3.20;2.20;;;21.80;70.90;;;;;;5126769;28;20054;-36
2021/10/10 06:50:46;;;;;;;2.00;1.80;;;21.80;70.90;;;;;;5126560;28;20054;-36
2021/10/10 06:53:12;;;;;;;3.25;1.85;;;21.80;71.00;;;;;;5126481;28;20020;-36
2021/10/10 06:55:38;;;;;;;5.05;1.90;;;21.80;71.00;;;;;;5126462;28;20031;-36
2021/10/10 06:58:04;;;;;;;5.50;2.00;;;21.80;71.10;;;;;;5126445;28;20019;-36
2021/10/10 07:00:30;;;;;;;2.03;1.90;;;21.80;71.10;;;;;;5126442;28;20122;-36
2021/10/10 07:02:58;;;;;;;2.78;1.83;;;21.80;71.00;;;;;;5126333;28;20016;-36
2021/10/10 07:05:24;;;;;;;1.92;1.70;;;21.80;71.10;;;;;;5105724;28;20028;-36
2021/10/10 07:07:50;;;;;;;1.65;1.55;;;21.80;71.10;;;;;;5105762;28;20024;-36
2021/10/10 07:10:16;;;;;;;2.47;1.80;;;21.80;71.20;;;;;;5105939;28;20025;-37
2021/10/10 07:12:42;;;;;;;1.95;1.75;;;21.70;71.10;;;;;;5121132;28;20031;-35
2021/10/10 07:15:11;;;;;;;2.80;2.00;;;21.70;71.20;;;;;;5125903;28;20070;-36
2021/10/10 07:17:37;;;;;;;3.33;2.00;;;21.70;71.20;;;;;;5125996;28;20062;-36
2021/10/10 07:20:11;;;;;;;1.88;1.77;;;21.70;71.20;;;;;;5125965;28;20035;-36
2021/10/10 07:25:08;;;;;;;2.65;2.00;;;21.70;71.20;;;;;;5125991;28;20016;-36
2021/10/10 07:27:35;;;;;;;4.45;2.38;;;21.70;71.30;;;;;;5125613;28;20106;-35
2021/10/10 07:30:03;;;;;;;;;;;21.70;71.30;;;;;;5125035;28;20180;-36
2021/10/10 07:32:29;;;;;;;2.80;2.15;;;21.70;71.30;;;;;;5125849;28;19907;-36
2021/10/10 07:34:55;;;;;;;3.17;2.30;;;21.70;71.30;;;;;;5109257;28;20069;-36
2021/10/10 07:37:22;;;;;;;3.38;1.83;;;21.70;71.40;;;;;;5109168;28;20059;-36
2021/10/10 07:39:48;;;;;;;1.88;1.67;;;21.60;71.30;;;;;;5125856;28;20034;-36
2021/10/10 07:42:14;;;;;;;2.05;1.85;;;21.60;71.30;;;;;;5125560;28;20019;-36
2021/10/10 07:44:48;;;;;;;2.10;1.80;;;21.70;71.40;;;;;;5125496;28;20054;-36
2021/10/10 07:49:50;;;;;;;2.03;1.80;;;21.70;71.50;;;;;;5125432;28;20122;-36
2021/10/10 07:52:16;;;;;;;2.78;1.83;;;21.60;71.40;;;;;;5125531;28;20031;-36
2021/10/10 07:54:43;;;;;;;2.25;1.88;;;21.70;71.40;;;;;;5112667;27;20035;-36
2021/10/10 07:57:09;;;;;;;2.00;1.90;;;21.60;71.40;;;;;;5104615;28;20032;-36
2021/10/10 07:59:36;;;;;;;2.13;1.92;;;21.60;71.50;;;;;;5104823;28;20039;-36
2021/10/10 08:02:02;;;;;;;2.28;1.98;;;21.60;71.50;;;;;;5104964;28;20097;-36
2021/10/10 08:04:28;;;;;;;3.13;2.10;;;21.60;71.50;;;;;;5117742;28;20016;-36
2021/10/10 08:06:54;;;;;;;2.50;1.95;;;21.60;71.50;;;;;;5124582;28;20070;-36
2021/10/10 08:09:21;;;;;;;2.37;1.70;;;21.60;71.60;;;;;;5125296;28;20023;-36
2021/10/10 08:11:48;;;;;;;2.20;1.95;;;21.60;71.60;;;;;;5106804;28;20375;-36
2021/10/10 08:14:14;;;;;;;2.03;1.83;;;21.60;71.50;;;;;;5125045;28;20028;-36
2021/10/10 08:16:41;;;;;;;2.00;1.80;;;21.60;71.50;;;;;;5124957;28;20110;-36
2021/10/10 08:19:07;;;;;;;1.98;1.77;;;21.50;71.50;;;;;;5125091;28;20046;-36
2021/10/10 08:21:34;;;;;;;2.65;1.95;;;21.50;71.60;;;;;;5124870;28;20039;-36
2021/10/10 08:24:03;;;;;;;2.10;1.90;;;21.60;71.60;;;;;;5123983;28;20015;-36
2021/10/10 08:26:30;;;;;;;2.88;1.80;;;21.50;71.60;;;;;;5124499;28;21163;-36
2021/10/10 08:28:56;;;;;;;1.90;1.80;;;21.50;71.60;;;;;;5124940;28;20125;-36
2021/10/10 08:31:26;;;;;;;1.98;1.77;;;21.60;71.70;;;;;;5124654;28;20691;-36
2021/10/10 08:33:53;;;;;;;1.95;1.80;;;21.50;71.70;;;;;;5098588;28;20052;-36
2021/10/10 08:36:19;;;;;;;3.25;1.85;;;21.50;71.60;;;;;;5103978;28;20775;-36
2021/10/10 08:38:45;;;;;;;2.40;1.97;;;21.50;71.70;;;;;;5104005;28;20024;-36
2021/10/10 08:41:12;;;;;;;2.22;1.80;;;21.50;71.70;;;;;;5104050;28;20064;-36
2021/10/10 08:43:39;;;;;;;2.03;1.83;;;21.50;72.40;;;;;;5104135;28;20061;-36
2021/10/10 08:46:06;;;;;;;2.22;2.00;;;21.50;71.80;;;;;;5103998;28;20051;-36
2021/10/10 08:48:32;;;;;;;;;;;21.50;71.80;;;;;;5104133;28;20536;-36
2021/10/10 08:50:58;;;;;;;3.10;1.70;;;21.50;71.70;;;;;;5104003;28;19979;-36
2021/10/10 08:53:25;;;;;;;2.60;1.67;;;21.50;71.80;;;;;;5103737;28;20024;-36
2021/10/10 08:55:51;;;;;;;2.10;1.90;;;21.50;71.90;;;;;;5124052;28;20027;-36
2021/10/10 08:58:22;;;;;;;2.55;1.70;;;21.50;71.90;;;;;;5124028;28;20031;-36
2021/10/10 09:00:50;;;;;;;2.47;1.88;;;21.50;71.90;;;;;;5124350;28;20028;-36
2021/10/10 09:03:17;;;;;;;2.17;1.85;;;21.50;71.90;;;;;;5121530;27;20023;-36
2021/10/10 09:05:44;;;;;;;2.20;2.00;;;21.50;71.90;;;;;;5103733;28;20055;-37
2021/10/10 09:08:10;;;;;;;2.88;2.15;;;21.40;71.90;;;;;;5109390;28;20078;-36
2021/10/10 09:10:38;;;;;;;1.70;1.60;;;21.50;71.90;;;;;;5123798;28;20031;-36
2021/10/10 09:13:07;;;;;;;;;;;21.50;72.00;;;;;;5124231;28;20027;-36
2021/10/10 09:15:34;;;;;;;1.98;1.80;;;21.40;71.90;;;;;;5123799;28;19943;-36
2021/10/10 09:18:01;;;;;;;1.90;1.73;;;21.40;72.00;;;;;;5123624;28;20041;-36
2021/10/10 09:20:31;;;;;;;1.85;1.60;;;21.40;72.00;;;;;;5123944;28;20020;-36
2021/10/10 09:22:58;;;;;;;2.17;1.85;;;21.40;72.10;;;;;;5123981;28;20110;-36
2021/10/10 09:25:25;;;;;;;1.95;1.60;;;21.40;72.10;;;;;;5128592;27;20016;-36
2021/10/10 09:27:51;;;;;;;2.67;2.40;;;21.40;72.10;;;;;;5110883;28;20039;-36
2021/10/10 09:30:21;;;;;;;1.88;1.77;;;21.40;72.10;;;;;;5123564;28;20035;-36
2021/10/10 09:32:53;;;;;;;2.42;2.00;;;21.40;72.10;;;;;;5106078;28;20035;-36
2021/10/10 09:35:28;;;;;;;3.33;1.80;;;21.40;72.10;;;;;;5123522;28;20032;-36
2021/10/10 09:38:10;;;;;;;2.03;1.83;;;21.40;72.20;;;;;;5123369;28;20050;-36
2021/10/10 09:40:44;;;;;;;2.30;1.88;;;21.40;72.20;;;;;;5123399;28;20072;-36
2021/10/10 09:43:10;;;;;;;2.83;1.70;;;21.40;72.20;;;;;;5123616;28;20112;-36
2021/10/10 09:45:52;;;;;;;2.13;2.00;;;21.30;72.20;;;;;;5123413;28;20089;-36
2021/10/10 09:48:29;;;;;;;2.10;1.80;;;21.40;72.30;;;;;;5122494;28;20035;-36
2021/10/10 09:50:55;;;;;;;2.05;1.70;;;21.40;72.30;;;;;;5123343;28;20039;-36
2021/10/10 09:53:28;;;;;;;2.13;1.90;;;21.40;72.30;;;;;;5122637;28;20027;-36
2021/10/10 09:55:56;;;;;;;2.95;1.90;;;21.30;72.30;;;;;;5105676;28;20472;-36
2021/10/10 09:58:38;;;;;;;3.38;1.90;;;21.30;72.30;;;;;;5123124;28;20047;-36
2021/10/10 10:01:19;;;;;;;3.35;1.70;;;21.30;72.40;;;;;;5123103;28;20100;-36
2021/10/10 10:03:58;;;;;;;1.85;1.73;;;21.30;72.40;;;;;;5123206;28;20020;-36
2021/10/10 10:06:26;;;;;;;2.20;2.00;;;21.30;72.40;;;;;;5123297;27;20380;-36
2021/10/10 10:09:01;;;;;;;2.85;1.95;;;21.30;72.40;;;;;;5122910;28;20027;-36
2021/10/10 10:11:28;;;;;;;2.35;1.90;;;21.30;72.40;;;;;;5106090;28;20161;-36
2021/10/10 10:13:54;;;;;;;1.90;1.67;;;21.30;72.50;;;;;;5105050;28;20024;-36
2021/10/10 10:16:20;;;;;;;2.10;1.90;;;21.30;72.40;;;;;;5104889;28;20109;-36
2021/10/10 10:18:47;;;;;;;2.13;1.80;;;21.30;72.50;;;;;;5121869;28;20049;-36
2021/10/10 10:21:13;;;;;;;2.22;2.03;;;21.20;72.40;;;;;;5123120;28;20027;-36
2021/10/10 10:23:39;;;;;;;2.00;1.90;;;21.30;72.60;;;;;;5087743;28;20050;-36
2021/10/10 10:26:05;;;;;;;2.22;2.03;;;21.30;72.60;;;;;;5087782;28;20035;-36
2021/10/10 10:28:31;;;;;;;2.15;1.60;;;21.30;72.60;;;;;;5122734;28;20027;-36
2021/10/10 10:30:59;;;;;;;1.75;1.60;;;21.30;72.60;;;;;;5104611;28;20642;-36
2021/10/10 10:33:31;;;;;;;2.03;1.77;;;21.20;72.50;;;;;;5119219;28;20028;-36
2021/10/10 10:35:57;;;;;;;2.17;1.80;;;21.20;72.60;;;;;;5102535;28;20016;-36
2021/10/10 10:38:46;;;;;;;1.48;1.38;;;21.20;72.60;;;;;;5102439;28;20028;-36
2021/10/10 10:42:05;;;;;;;2.53;1.98;;;21.20;72.60;;;;;;5102310;28;20020;-36
2021/10/10 10:44:35;;;;;;;1.90;1.80;;;21.20;72.60;;;;;;5039582;28;20041;-36
2021/10/10 10:47:03;;;;;;;1.85;1.65;;;21.20;72.70;;;;;;5039589;28;20029;-36
2021/10/10 10:49:51;;;;;;;2.30;2.10;;;21.20;72.70;;;;;;5039235;28;20072;-36
2021/10/10 10:52:26;;;;;;;1.80;1.70;;;21.20;72.70;;;;;;5039688;28;20040;-36
2021/10/10 10:55:16;;;;;;;2.45;1.80;;;21.20;72.80;;;;;;5052104;28;20033;-36
2021/10/10 10:57:55;;;;;;;1.75;1.52;;;21.20;72.80;;;;;;5053422;28;20036;-36
2021/10/10 11:00:26;;;;;;;1.70;1.60;;;21.20;72.90;;;;;;5059057;28;20104;-36
2021/10/10 11:02:52;;;;;;;2.47;1.80;;;21.20;72.90;;;;;;5059390;28;20021;-36
2021/10/10 11:05:40;;;;;;;3.08;1.90;;;21.10;72.90;;;;;;5061632;28;20065;-36
2021/10/10 11:08:27;;;;;;;2.83;2.08;;;21.10;72.90;;;;;;5046358;28;20418;-36
2021/10/10 11:11:07;;;;;;;2.00;1.70;;;21.10;73.00;;;;;;5055658;28;20056;-36
2021/10/10 11:13:47;;;;;;;2.67;1.50;;;21.10;73.00;;;;;;5062070;28;20047;-36
2021/10/10 11:16:34;;;;;;;2.42;1.88;;;21.10;72.90;;;;;;5063039;28;20064;-36
2021/10/10 11:19:05;;;;;;;2.03;1.80;;;21.10;73.00;;;;;;5065180;28;20021;-36
2021/10/10 11:21:36;;;;;;;4.15;1.85;;;21.10;73.00;;;;;;5091015;28;20080;-36
2021/10/10 11:24:04;;;;;;;1.75;1.65;;;21.10;73.00;;;;;;5126143;28;20543;-36
2021/10/10 11:26:35;;;;;;;1.70;1.60;;;21.10;73.10;;;;;;5126027;28;20072;-36
2021/10/10 11:29:07;;;;;;;2.33;2.00;;;21.10;73.00;;;;;;5125632;28;20059;-36
2021/10/10 11:31:34;;;;;;;3.00;1.80;;;21.10;73.10;;;;;;5125986;28;20071;-36
2021/10/10 11:34:02;;;;;;;1.80;1.45;;;21.10;73.80;;;;;;5117199;28;20031;-36
2021/10/10 11:36:38;;;;;;;2.03;1.83;;;21.10;73.20;;;;;;5105414;28;20031;-36
2021/10/10 11:39:06;;;;;;;2.55;1.88;;;21.10;73.20;;;;;;5105180;28;20030;-36
2021/10/10 11:41:39;;;;;;;1.73;1.60;;;21.00;73.10;;;;;;5105271;28;20024;-36
2021/10/10 11:44:07;;;;;;;1.80;1.70;;;21.00;73.10;;;;;;5087820;28;20035;-36
2021/10/10 11:46:38;;;;;;;1.67;1.58;;;21.00;73.20;;;;;;5105333;28;20032;-36
2021/10/10 11:49:23;;;;;;;1.88;1.70;;;21.00;73.30;;;;;;5110006;28;20044;-36
2021/10/10 11:51:51;;;;;;;1.92;1.70;;;21.00;73.20;;;;;;5109991;28;20043;-36
2021/10/10 11:54:36;;;;;;;1.92;1.63;;;21.00;73.30;;;;;;5125438;28;20050;-37
2021/10/10 11:57:03;;;;;;;2.88;1.70;;;21.00;73.30;;;;;;5125232;28;20037;-36
2021/10/10 11:59:29;;;;;;;2.10;1.60;;;21.00;73.40;;;;;;5125155;28;20062;-36
2021/10/10 12:01:55;;;;;;;2.13;1.63;;;21.00;73.40;;;;;;5125658;28;20100;-36
2021/10/10 12:04:22;;;;;;;2.03;1.70;;;21.00;73.40;;;;;;5113438;28;20491;-36
2021/10/10 12:06:49;;;;;;;1.40;1.30;;;21.00;73.40;;;;;;5105130;28;20139;-36
2021/10/10 12:09:16;;;;;;;2.13;1.67;;;21.00;73.40;;;;;;5104591;28;20032;-36
2021/10/10 12:11:43;;;;;;;1.92;1.60;;;21.00;73.40;;;;;;5120417;28;20061;-36
2021/10/10 12:14:09;;;;;;;2.13;1.70;;;21.00;73.40;;;;;;5106591;28;20757;-36
2021/10/10 12:16:42;;;;;;;2.30;1.58;;;21.00;73.40;;;;;;5124649;28;20096;-36
2021/10/10 12:19:09;;;;;;;2.03;1.65;;;21.00;73.40;;;;;;5125239;28;20023;-36
2021/10/10 12:21:36;;;;;;;2.75;1.40;;;20.90;73.40;;;;;;5106576;28;20032;-36
2021/10/10 12:24:13;;;;;;;;;;;20.90;73.40;;;;;;5125323;28;20028;-36
2021/10/10 12:26:53;;;;;;;2.28;1.58;;;20.90;73.40;;;;;;5124765;28;19975;-36
2021/10/10 12:29:29;;;;;;;1.60;1.48;;;20.90;73.50;;;;;;5124895;28;20778;-36
2021/10/10 12:32:16;;;;;;;1.88;1.67;;;20.90;73.40;;;;;;5124833;28;20043;-36
2021/10/10 12:34:42;;;;;;;1.42;1.33;;;20.90;73.50;;;;;;5124698;28;20020;-36
2021/10/10 12:37:19;;;;;;;1.95;1.70;;;20.90;73.60;;;;;;5106380;28;20051;-36
2021/10/10 12:39:45;;;;;;;2.28;1.50;;;20.90;73.60;;;;;;5124289;28;20031;-36
2021/10/10 12:42:12;;;;;;;1.70;1.60;;;20.90;73.60;;;;;;5106259;28;20035;-36
2021/10/10 12:44:38;;;;;;;1.65;1.55;;;20.90;73.60;;;;;;5124685;28;20035;-36
2021/10/10 12:47:06;;;;;;;1.67;1.58;;;20.90;73.50;;;;;;5124513;28;20036;-36
2021/10/10 12:49:35;;;;;;;1.45;1.35;;;20.90;73.60;;;;;;5124268;28;20529;-36
2021/10/10 12:52:08;;;;;;;2.55;1.63;;;20.90;73.60;;;;;;5124069;28;20039;-36
2021/10/10 12:54:42;;;;;;;1.65;1.55;;;20.90;73.60;;;;;;5123882;28;20083;-36
2021/10/10 12:57:09;;;;;;;1.83;1.45;;;20.80;73.50;;;;;;5124288;28;20114;-36
2021/10/10 12:59:41;;;;;;;;;;;20.90;73.60;;;;;;5124799;28;20027;-36